createdAt,value
2023-09-09T00:00:47.287Z,5.70
2023-09-09T00:01:47.429Z,7.00
2023-09-09T00:02:47.612Z,6.10
2023-09-09T00:03:47.836Z,6.50
2023-09-09T00:04:48.023Z,6.40
2023-09-09T00:05:48.157Z,7.10
2023-09-09T00:06:48.334Z,7.10
2023-09-09T00:07:48.441Z,6.30
2023-09-09T00:08:48.576Z,5.80
2023-09-09T00:09:48.685Z,5.90
2023-09-09T00:10:48.856Z,5.90
2023-09-09T00:11:48.977Z,6.70
2023-09-09T00:12:49.086Z,5.10
2023-09-09T00:13:49.191Z,6.90
2023-09-09T00:14:49.314Z,6.20
2023-09-09T00:15:49.465Z,7.20
2023-09-09T00:16:49.640Z,7.70
2023-09-09T00:17:49.962Z,5.30
2023-09-09T00:18:50.138Z,6.30
2023-09-09T00:19:50.269Z,6.00
2023-09-09T00:20:50.365Z,6.30
2023-09-09T00:21:50.466Z,5.70
2023-09-09T00:22:50.558Z,5.70
2023-09-09T00:23:50.671Z,6.20
2023-09-09T00:24:50.902Z,6.40
2023-09-09T00:25:51.001Z,6.80
2023-09-09T00:26:51.109Z,6.60
2023-09-09T00:27:51.210Z,6.20
2023-09-09T00:28:51.330Z,6.20
2023-09-09T00:29:51.430Z,6.90
2023-09-09T00:30:51.538Z,5.70
2023-09-09T00:31:51.734Z,6.00
2023-09-09T00:32:51.923Z,5.60
2023-09-09T00:33:52.050Z,7.00
2023-09-09T00:34:52.157Z,7.20
2023-09-09T00:35:52.263Z,6.90
2023-09-09T00:36:52.383Z,5.40
2023-09-09T00:37:52.524Z,6.80
2023-09-09T00:38:52.674Z,6.20
2023-09-09T00:39:52.781Z,5.40
2023-09-09T00:40:52.865Z,5.20
2023-09-09T00:41:53.009Z,7.00
2023-09-09T00:42:53.142Z,5.90
2023-09-09T00:43:53.242Z,6.30
2023-09-09T00:44:53.434Z,5.50
2023-09-09T00:45:53.623Z,6.70
2023-09-09T00:46:53.921Z,6.10
2023-09-09T00:47:54.322Z,7.50
2023-09-09T00:48:54.513Z,6.10
2023-09-09T00:49:54.678Z,6.40
2023-09-09T00:50:54.796Z,5.50
2023-09-09T00:51:54.922Z,6.40
2023-09-09T00:52:55.040Z,5.70
2023-09-09T00:53:55.152Z,5.80
2023-09-09T00:54:55.286Z,7.10
2023-09-09T00:55:55.422Z,6.20
2023-09-09T00:56:55.514Z,5.50
2023-09-09T00:57:55.654Z,6.60
2023-09-09T00:58:55.747Z,7.20
2023-09-09T00:59:55.839Z,6.00
2023-09-09T01:00:55.939Z,6.20
2023-09-09T01:01:56.107Z,6.40
2023-09-09T01:02:56.376Z,6.40
2023-09-09T01:03:56.610Z,6.40
2023-09-09T01:04:56.806Z,6.50
2023-09-09T01:05:56.904Z,5.20
2023-09-09T01:06:56.999Z,5.80
2023-09-09T01:07:57.143Z,7.00
2023-09-09T01:08:57.287Z,4.90
2023-09-09T01:09:57.390Z,6.70
2023-09-09T01:10:57.550Z,6.10
2023-09-09T01:11:57.723Z,6.20
2023-09-09T01:12:57.830Z,5.50
2023-09-09T01:13:58.035Z,5.90
2023-09-09T01:14:58.292Z,5.80
2023-09-09T01:15:58.465Z,6.00
2023-09-09T01:16:58.631Z,5.70
2023-09-09T01:17:58.749Z,5.60
2023-09-09T01:18:58.913Z,5.70
2023-09-09T01:19:59.008Z,6.00
2023-09-09T01:20:59.111Z,5.40
2023-09-09T01:21:59.311Z,5.60
2023-09-09T01:22:59.473Z,6.20
2023-09-09T01:23:59.644Z,6.50
2023-09-09T01:24:59.762Z,5.80
2023-09-09T01:25:59.875Z,6.40
2023-09-09T01:27:00.015Z,6.10
2023-09-09T01:28:00.162Z,6.10
2023-09-09T01:29:00.404Z,5.60
2023-09-09T01:30:00.554Z,6.00
2023-09-09T01:31:00.724Z,6.00
2023-09-09T01:32:00.862Z,5.70
2023-09-09T01:33:00.990Z,5.00
2023-09-09T01:34:01.178Z,5.40
2023-09-09T01:35:01.324Z,5.40
2023-09-09T01:36:01.419Z,5.70
2023-09-09T01:37:01.533Z,6.80
2023-09-09T01:38:01.666Z,6.20
2023-09-09T01:39:01.821Z,6.10
2023-09-09T01:40:02.009Z,5.70
2023-09-09T01:41:02.173Z,6.00
2023-09-09T01:42:02.336Z,5.90
2023-09-09T01:43:02.472Z,5.50
2023-09-09T01:44:02.618Z,5.50
2023-09-09T01:45:02.736Z,6.50
2023-09-09T01:46:02.875Z,6.20
2023-09-09T01:47:03.008Z,5.80
2023-09-09T01:48:03.188Z,5.50
2023-09-09T01:49:03.413Z,5.50
2023-09-09T01:50:03.553Z,5.80
2023-09-09T01:51:03.688Z,5.60
2023-09-09T01:52:03.818Z,5.60
2023-09-09T01:53:03.960Z,5.50
2023-09-09T01:54:04.173Z,5.50
2023-09-09T01:55:04.314Z,5.20
2023-09-09T01:56:04.496Z,5.60
2023-09-09T01:57:04.610Z,6.20
2023-09-09T01:58:04.728Z,5.50
2023-09-09T01:59:04.871Z,6.10
2023-09-09T02:00:05.220Z,5.20
2023-09-09T02:01:05.437Z,5.80
2023-09-09T02:02:05.617Z,5.30
2023-09-09T02:03:07.656Z,5.40
2023-09-09T02:04:05.970Z,5.00
2023-09-09T02:05:06.186Z,5.40
2023-09-09T02:06:06.348Z,5.30
2023-09-09T02:07:06.516Z,5.10
2023-09-09T02:08:06.615Z,5.50
2023-09-09T02:09:06.816Z,5.60
2023-09-09T02:10:06.931Z,5.80
2023-09-09T02:11:07.104Z,5.10
2023-09-09T02:12:07.208Z,5.40
2023-09-09T02:13:07.336Z,5.80
2023-09-09T02:14:07.445Z,5.40
2023-09-09T02:15:07.570Z,5.60
2023-09-09T02:16:07.760Z,6.70
2023-09-09T02:17:07.915Z,6.20
2023-09-09T02:18:08.046Z,5.10
2023-09-09T02:19:08.670Z,5.70
2023-09-09T02:20:08.279Z,5.80
2023-09-09T02:21:08.434Z,5.30
2023-09-09T02:22:08.626Z,5.10
2023-09-09T02:23:08.719Z,5.30
2023-09-09T02:24:08.813Z,5.60
2023-09-09T02:25:08.923Z,5.80
2023-09-09T02:26:09.073Z,5.00
2023-09-09T02:27:09.178Z,4.90
2023-09-09T02:28:09.270Z,5.20
2023-09-09T02:29:09.368Z,5.60
2023-09-09T02:30:09.495Z,5.70
2023-09-09T02:31:09.739Z,5.20
2023-09-09T02:32:09.939Z,5.80
2023-09-09T02:33:10.159Z,6.10
2023-09-09T02:34:10.344Z,5.00
2023-09-09T02:35:10.453Z,5.50
2023-09-09T02:36:10.576Z,5.10
2023-09-09T02:37:11.028Z,5.60
2023-09-09T02:38:11.132Z,6.00
2023-09-09T02:39:11.270Z,5.60
2023-09-09T02:40:12.408Z,5.90
2023-09-09T02:41:11.435Z,5.40
2023-09-09T02:42:11.528Z,4.80
2023-09-09T02:43:11.627Z,5.80
2023-09-09T02:44:11.717Z,5.20
2023-09-09T02:45:14.947Z,5.20
2023-09-09T02:46:11.824Z,5.30
2023-09-09T02:47:12.016Z,5.10
2023-09-09T02:48:12.194Z,5.20
2023-09-09T02:49:12.354Z,5.70
2023-09-09T02:50:12.501Z,5.50
2023-09-09T02:51:12.609Z,4.80
2023-09-09T02:52:12.745Z,5.10
2023-09-09T02:53:12.873Z,5.10
2023-09-09T02:54:12.979Z,5.50
2023-09-09T02:55:13.170Z,5.10
2023-09-09T02:56:13.310Z,5.80
2023-09-09T02:57:13.433Z,4.40
2023-09-09T02:58:13.574Z,5.10
2023-09-09T02:59:13.710Z,5.50
2023-09-09T03:00:13.812Z,4.60
2023-09-09T03:01:13.974Z,4.90
2023-09-09T03:02:14.169Z,5.00
2023-09-09T03:03:14.434Z,6.10
2023-09-09T03:04:14.626Z,5.20
2023-09-09T03:05:14.726Z,5.40
2023-09-09T03:06:14.857Z,5.40
2023-09-09T03:07:14.975Z,5.00
2023-09-09T03:08:15.116Z,4.60
2023-09-09T03:09:15.209Z,5.40
2023-09-09T03:10:15.341Z,5.50
2023-09-09T03:11:15.465Z,5.70
2023-09-09T03:12:15.625Z,5.70
2023-09-09T03:13:15.799Z,5.00
2023-09-09T03:14:15.926Z,5.10
2023-09-09T03:15:16.065Z,5.30
2023-09-09T03:16:16.221Z,6.00
2023-09-09T03:17:16.360Z,6.40
2023-09-09T03:18:16.600Z,5.40
2023-09-09T03:19:16.855Z,4.80
2023-09-09T03:20:16.989Z,4.90
2023-09-09T03:21:17.111Z,5.00
2023-09-09T03:22:17.215Z,4.90
2023-09-09T03:23:17.321Z,4.60
2023-09-09T03:24:17.462Z,4.80
2023-09-09T03:25:17.578Z,5.70
2023-09-09T03:26:17.692Z,4.70
2023-09-09T03:27:17.809Z,5.10
2023-09-09T03:28:17.923Z,5.00
2023-09-09T03:29:18.036Z,4.60
2023-09-09T03:30:18.193Z,4.80
2023-09-09T03:31:18.350Z,5.90
2023-09-09T03:32:18.531Z,4.70
2023-09-09T03:33:18.736Z,5.10
2023-09-09T03:34:18.938Z,4.70
2023-09-09T03:35:19.057Z,5.00
2023-09-09T03:36:19.156Z,5.30
2023-09-09T03:37:19.288Z,4.80
2023-09-09T03:38:19.419Z,4.90
2023-09-09T03:39:19.542Z,5.50
2023-09-09T03:40:19.651Z,4.80
2023-09-09T03:41:19.748Z,4.60
2023-09-09T03:42:19.857Z,5.30
2023-09-09T03:43:19.984Z,5.30
2023-09-09T03:44:20.084Z,5.30
2023-09-09T03:45:20.217Z,4.50
2023-09-09T03:46:20.406Z,4.10
2023-09-09T03:47:20.537Z,4.10
2023-09-09T03:48:20.636Z,4.20
2023-09-09T03:49:20.783Z,5.30
2023-09-09T03:50:20.896Z,5.20
2023-09-09T03:51:21.018Z,5.30
2023-09-09T03:52:21.162Z,5.40
2023-09-09T03:53:21.334Z,4.80
2023-09-09T03:54:21.468Z,5.30
2023-09-09T03:55:21.603Z,5.60
2023-09-09T03:56:21.813Z,4.40
2023-09-09T03:57:21.980Z,5.00
2023-09-09T03:58:22.129Z,4.80
2023-09-09T03:59:22.233Z,4.90
2023-09-09T04:00:22.375Z,4.10
2023-09-09T04:01:22.711Z,5.50
2023-09-09T04:02:22.892Z,4.70
2023-09-09T04:03:23.101Z,4.60
2023-09-09T04:04:23.389Z,4.90
2023-09-09T04:05:23.587Z,4.70
2023-09-09T04:06:23.690Z,5.80
2023-09-09T04:07:23.817Z,4.60
2023-09-09T04:08:23.919Z,4.20
2023-09-09T04:09:24.039Z,4.40
2023-09-09T04:10:24.162Z,6.00
2023-09-09T04:11:24.258Z,5.00
2023-09-09T04:12:24.355Z,5.90
2023-09-09T04:13:25.461Z,4.50
2023-09-09T04:14:24.472Z,5.30
2023-09-09T04:15:24.570Z,4.10
2023-09-09T04:16:24.781Z,5.30
2023-09-09T04:17:25.171Z,4.90
2023-09-09T04:18:42.414Z,3.90
2023-09-09T04:19:25.612Z,4.60
2023-09-09T04:20:25.704Z,5.20
2023-09-09T04:21:25.812Z,4.50
2023-09-09T04:22:25.929Z,4.70
2023-09-09T04:23:26.052Z,4.70
2023-09-09T04:24:26.209Z,5.30
2023-09-09T04:25:27.225Z,4.80
2023-09-09T04:26:26.593Z,4.80
2023-09-09T04:27:26.731Z,4.30
2023-09-09T04:28:26.840Z,4.70
2023-09-09T04:29:26.954Z,4.40
2023-09-09T04:30:27.084Z,4.80
2023-09-09T04:31:27.282Z,4.60
2023-09-09T04:32:27.525Z,4.40
2023-09-09T04:33:27.780Z,4.10
2023-09-09T04:34:27.934Z,4.50
2023-09-09T04:35:28.040Z,5.50
2023-09-09T04:36:28.176Z,4.70
2023-09-09T04:37:28.330Z,4.20
2023-09-09T04:38:28.430Z,5.80
2023-09-09T04:39:28.555Z,4.50
2023-09-09T04:40:28.678Z,4.40
2023-09-09T04:41:28.776Z,4.40
2023-09-09T04:42:28.887Z,4.80
2023-09-09T04:43:28.989Z,4.00
2023-09-09T04:44:29.091Z,5.90
2023-09-09T04:45:29.204Z,4.80
2023-09-09T04:46:29.316Z,4.50
2023-09-09T04:47:29.446Z,4.80
2023-09-09T04:48:29.618Z,4.20
2023-09-09T04:49:29.779Z,4.20
2023-09-09T04:50:29.914Z,4.40
2023-09-09T04:51:30.016Z,4.80
2023-09-09T04:52:30.108Z,4.50
2023-09-09T04:53:30.218Z,5.00
2023-09-09T04:54:30.668Z,4.60
2023-09-09T04:55:30.773Z,4.70
2023-09-09T04:56:30.923Z,4.60
2023-09-09T04:57:31.025Z,4.30
2023-09-09T04:58:31.211Z,4.30
2023-09-09T04:59:31.271Z,4.80
2023-09-09T05:00:31.401Z,3.70
2023-09-09T05:01:31.622Z,3.80
2023-09-09T05:02:31.880Z,4.30
2023-09-09T05:03:32.172Z,4.00
2023-09-09T05:04:32.483Z,3.90
2023-09-09T05:05:32.636Z,4.40
2023-09-09T05:06:32.774Z,4.80
2023-09-09T05:07:32.899Z,4.60
2023-09-09T05:08:33.003Z,3.90
2023-09-09T05:09:33.128Z,5.00
2023-09-09T05:10:33.294Z,4.40
2023-09-09T05:11:33.393Z,4.10
2023-09-09T05:12:33.522Z,4.50
2023-09-09T05:13:33.628Z,4.70
2023-09-09T05:14:33.728Z,4.50
2023-09-09T05:15:33.848Z,4.50
2023-09-09T05:16:34.029Z,4.50
2023-09-09T05:17:34.229Z,4.90
2023-09-09T05:18:34.343Z,4.30
2023-09-09T05:19:34.495Z,4.20
2023-09-09T05:20:34.660Z,4.30
2023-09-09T05:21:34.763Z,5.20
2023-09-09T05:22:34.922Z,4.40
2023-09-09T05:23:35.214Z,4.20
2023-09-09T05:24:35.511Z,4.10
2023-09-09T05:25:35.617Z,4.10
2023-09-09T05:26:35.732Z,4.50
2023-09-09T05:27:35.868Z,4.40
2023-09-09T05:28:35.999Z,4.60
2023-09-09T05:29:36.120Z,3.80
2023-09-09T05:30:36.213Z,4.90
2023-09-09T05:31:36.619Z,3.90
2023-09-09T05:32:36.906Z,4.20
2023-09-09T05:33:37.472Z,4.50
2023-09-09T05:34:37.406Z,4.60
2023-09-09T05:35:37.515Z,3.60
2023-09-09T05:36:37.631Z,4.10
2023-09-09T05:37:37.757Z,4.50
2023-09-09T05:38:37.876Z,4.50
2023-09-09T05:39:38.005Z,3.90
2023-09-09T05:40:38.105Z,5.30
2023-09-09T05:41:38.237Z,8.30
2023-09-09T05:42:38.397Z,8.30
2023-09-09T05:43:38.750Z,5.40
2023-09-09T05:44:38.563Z,4.90
2023-09-09T05:45:38.768Z,5.70
2023-09-09T05:46:38.959Z,7.70
2023-09-09T05:47:39.194Z,5.90
2023-09-09T05:48:39.345Z,5.10
2023-09-09T05:49:40.589Z,7.70
2023-09-09T05:50:39.794Z,5.60
2023-09-09T05:51:39.899Z,6.10
2023-09-09T05:52:40.092Z,5.30
2023-09-09T05:53:40.614Z,6.10
2023-09-09T05:54:40.431Z,7.30
2023-09-09T05:55:40.882Z,5.30
2023-09-09T05:56:40.978Z,6.00
2023-09-09T05:57:41.084Z,8.10
2023-09-09T05:58:41.199Z,6.60
2023-09-09T05:59:41.389Z,5.80
2023-09-09T06:00:41.553Z,7.80
2023-09-09T06:01:41.729Z,7.80
2023-09-09T06:02:41.945Z,9.00
2023-09-09T06:03:42.179Z,5.20
2023-09-09T06:04:42.588Z,8.50
2023-09-09T06:05:42.906Z,9.60
2023-09-09T06:06:43.082Z,6.10
2023-09-09T06:07:43.198Z,8.00
2023-09-09T06:08:43.326Z,7.80
2023-09-09T06:09:43.459Z,5.90
2023-09-09T06:10:43.615Z,5.70
2023-09-09T06:11:43.843Z,5.60
2023-09-09T06:12:44.143Z,5.80
2023-09-09T06:13:44.316Z,6.80
2023-09-09T06:14:44.439Z,11.10
2023-09-09T06:15:44.580Z,8.00
2023-09-09T06:16:44.706Z,7.10
2023-09-09T06:17:44.900Z,7.30
2023-09-09T06:18:45.061Z,7.20
2023-09-09T06:19:45.196Z,6.30
2023-09-09T06:20:45.334Z,7.30
2023-09-09T06:21:45.459Z,6.00
2023-09-09T06:22:45.589Z,7.60
2023-09-09T06:23:45.701Z,6.40
2023-09-09T06:24:45.816Z,9.80
2023-09-09T06:25:45.917Z,6.50
2023-09-09T06:26:46.061Z,5.60
2023-09-09T06:27:46.166Z,6.20
2023-09-09T06:28:46.401Z,6.10
2023-09-09T06:29:46.663Z,6.80
2023-09-09T06:30:46.817Z,7.10
2023-09-09T06:31:47.054Z,5.90
2023-09-09T06:32:47.320Z,7.30
2023-09-09T06:33:47.647Z,4.80
2023-09-09T06:34:47.832Z,5.70
2023-09-09T06:35:47.967Z,5.60
2023-09-09T06:36:48.086Z,6.60
2023-09-09T06:37:48.220Z,7.70
2023-09-09T06:38:48.360Z,8.10
2023-09-09T06:39:48.489Z,5.20
2023-09-09T06:40:48.606Z,6.30
2023-09-09T06:41:48.711Z,5.40
2023-09-09T06:42:48.824Z,12.10
2023-09-09T06:43:49.022Z,9.10
2023-09-09T06:44:49.170Z,5.50
2023-09-09T06:45:49.336Z,6.00
2023-09-09T06:46:49.486Z,9.70
2023-09-09T06:47:49.650Z,7.90
2023-09-09T06:48:49.803Z,7.70
2023-09-09T06:49:49.959Z,12.50
2023-09-09T06:50:50.110Z,6.10
2023-09-09T06:51:50.256Z,6.40
2023-09-09T06:52:50.358Z,9.80
2023-09-09T06:53:52.239Z,6.00
2023-09-09T06:54:50.544Z,6.80
2023-09-09T06:55:50.659Z,7.60
2023-09-09T06:56:50.762Z,6.80
2023-09-09T06:57:50.886Z,6.30
2023-09-09T06:58:51.000Z,8.90
2023-09-09T06:59:51.131Z,5.10
2023-09-09T07:00:51.252Z,6.60
2023-09-09T07:01:51.371Z,6.20
2023-09-09T07:02:51.542Z,6.00
2023-09-09T07:03:51.770Z,7.20
2023-09-09T07:04:52.015Z,6.80
2023-09-09T07:05:52.242Z,6.40
2023-09-09T07:07:05.249Z,5.60
2023-09-09T07:07:52.567Z,6.00
2023-09-09T07:08:52.686Z,6.90
2023-09-09T07:09:52.814Z,6.40
2023-09-09T07:10:52.992Z,6.70
2023-09-09T07:11:53.179Z,5.00
2023-09-09T07:12:53.329Z,5.20
2023-09-09T07:13:53.468Z,5.60
2023-09-09T07:14:53.591Z,7.30
2023-09-09T07:15:53.946Z,5.20
2023-09-09T07:16:54.144Z,10.50
2023-09-09T07:17:54.310Z,5.60
2023-09-09T07:18:54.507Z,7.10
2023-09-09T07:19:54.673Z,10.50
2023-09-09T07:20:54.781Z,7.80
2023-09-09T07:21:54.914Z,4.40
2023-09-09T07:22:55.035Z,6.40
2023-09-09T07:23:55.145Z,7.70
2023-09-09T07:24:55.286Z,5.50
2023-09-09T07:25:55.500Z,6.70
2023-09-09T07:26:55.712Z,6.90
2023-09-09T07:27:55.829Z,6.60
2023-09-09T07:28:55.948Z,7.20
2023-09-09T07:29:56.141Z,6.70
2023-09-09T07:30:56.320Z,6.80
2023-09-09T07:31:56.477Z,6.40
2023-09-09T07:32:56.641Z,6.20
2023-09-09T07:33:56.830Z,7.00
2023-09-09T07:34:57.007Z,5.60
2023-09-09T07:35:57.154Z,6.10
2023-09-09T07:36:57.282Z,7.80
2023-09-09T07:37:57.391Z,5.90
2023-09-09T07:38:57.509Z,6.00
2023-09-09T07:39:57.612Z,9.90
2023-09-09T07:40:57.758Z,6.20
2023-09-09T07:41:57.897Z,6.00
2023-09-09T07:42:58.045Z,9.40
2023-09-09T07:43:58.211Z,10.10
2023-09-09T07:44:58.337Z,4.50
2023-09-09T07:45:58.480Z,6.30
2023-09-09T07:46:58.640Z,4.60
2023-09-09T07:47:58.786Z,4.90
2023-09-09T07:48:58.903Z,4.70
2023-09-09T07:49:59.002Z,5.40
2023-09-09T07:50:59.114Z,5.30
2023-09-09T07:51:59.222Z,4.80
2023-09-09T07:52:59.327Z,5.70
2023-09-09T07:53:59.459Z,7.00
2023-09-09T07:54:59.603Z,5.30
2023-09-09T07:55:59.737Z,4.90
2023-09-09T07:56:59.854Z,4.20
2023-09-09T07:57:59.971Z,4.10
2023-09-09T07:59:00.115Z,7.10
2023-09-09T08:00:00.353Z,9.80
2023-09-09T08:01:00.532Z,7.50
2023-09-09T08:02:00.711Z,9.20
2023-09-09T08:03:01.069Z,6.20
2023-09-09T08:04:01.321Z,7.20
2023-09-09T08:05:01.472Z,9.80
2023-09-09T08:06:01.620Z,12.00
2023-09-09T08:07:01.832Z,8.50
2023-09-09T08:08:01.995Z,8.50
2023-09-09T08:09:02.163Z,5.00
2023-09-09T08:10:02.430Z,5.80
2023-09-09T08:11:02.616Z,8.30
2023-09-09T08:12:02.744Z,8.60
2023-09-09T08:13:02.891Z,6.00
2023-09-09T08:14:03.018Z,6.20
2023-09-09T08:15:03.136Z,6.70
2023-09-09T08:16:03.345Z,6.50
2023-09-09T08:17:03.641Z,7.40
2023-09-09T08:18:03.847Z,5.30
2023-09-09T08:19:04.065Z,8.30
2023-09-09T08:20:04.214Z,7.40
2023-09-09T08:21:04.400Z,5.60
2023-09-09T08:22:04.598Z,9.50
2023-09-09T08:23:04.723Z,9.70
2023-09-09T08:24:04.830Z,6.20
2023-09-09T08:25:04.956Z,6.80
2023-09-09T08:26:05.121Z,4.70
2023-09-09T08:27:05.248Z,6.50
2023-09-09T08:28:05.510Z,5.30
2023-09-09T08:29:05.706Z,5.80
2023-09-09T08:30:05.840Z,7.60
2023-09-09T08:31:06.010Z,5.00
2023-09-09T08:32:06.236Z,4.90
2023-09-09T08:33:06.415Z,6.50
2023-09-09T08:34:06.555Z,6.70
2023-09-09T08:35:06.665Z,5.80
2023-09-09T08:36:06.781Z,6.20
2023-09-09T08:37:06.893Z,5.10
2023-09-09T08:38:06.994Z,7.70
2023-09-09T08:39:07.121Z,6.70
2023-09-09T08:40:07.294Z,5.30
2023-09-09T08:41:07.555Z,5.10
2023-09-09T08:42:07.717Z,6.90
2023-09-09T08:43:07.830Z,6.60
2023-09-09T08:44:07.944Z,5.00
2023-09-09T08:45:08.038Z,8.90
2023-09-09T08:46:08.166Z,5.40
2023-09-09T08:47:08.291Z,4.70
2023-09-09T08:48:08.495Z,4.60
2023-09-09T08:49:08.683Z,5.80
2023-09-09T08:50:08.809Z,3.70
2023-09-09T08:51:08.949Z,6.40
2023-09-09T08:52:09.081Z,5.00
2023-09-09T08:53:09.193Z,5.30
2023-09-09T08:54:09.308Z,5.80
2023-09-09T08:55:09.413Z,6.20
2023-09-09T08:56:09.517Z,5.10
2023-09-09T08:57:09.740Z,4.30
2023-09-09T08:58:09.945Z,8.40
2023-09-09T08:59:10.116Z,5.40
2023-09-09T09:00:10.216Z,5.40
2023-09-09T09:01:10.401Z,4.00
2023-09-09T09:02:10.570Z,7.00
2023-09-09T09:03:10.770Z,4.60
2023-09-09T09:04:11.753Z,5.40
2023-09-09T09:05:10.974Z,6.00
2023-09-09T09:06:11.192Z,5.30
2023-09-09T09:07:11.320Z,4.90
2023-09-09T09:08:11.435Z,4.00
2023-09-09T09:09:11.550Z,4.60
2023-09-09T09:10:11.662Z,6.00
2023-09-09T09:11:11.791Z,5.00
2023-09-09T09:12:11.906Z,4.20
2023-09-09T09:13:12.027Z,5.00
2023-09-09T09:14:12.135Z,4.30
2023-09-09T09:15:12.250Z,4.60
2023-09-09T09:16:12.379Z,5.70
2023-09-09T09:17:12.524Z,4.30
2023-09-09T09:18:12.972Z,4.80
2023-09-09T09:19:13.172Z,4.70
2023-09-09T09:20:13.274Z,4.50
2023-09-09T09:21:13.377Z,5.40
2023-09-09T09:22:13.496Z,4.50
2023-09-09T09:23:13.488Z,4.40
2023-09-09T09:24:13.583Z,4.80
2023-09-09T09:25:13.698Z,4.70
2023-09-09T09:26:13.805Z,4.90
2023-09-09T09:27:13.919Z,4.00
2023-09-09T09:28:14.040Z,4.00
2023-09-09T09:29:14.181Z,5.90
2023-09-09T09:30:14.322Z,5.10
2023-09-09T09:31:14.442Z,4.60
2023-09-09T09:32:14.607Z,4.40
2023-09-09T09:33:14.858Z,4.20
2023-09-09T09:34:15.020Z,4.40
2023-09-09T09:35:15.127Z,4.80
2023-09-09T09:36:15.241Z,6.10
2023-09-09T09:37:15.350Z,3.80
2023-09-09T09:38:15.601Z,3.30
2023-09-09T09:39:15.721Z,4.40
2023-09-09T09:40:15.829Z,6.30
2023-09-09T09:41:15.930Z,4.60
2023-09-09T09:42:16.045Z,4.90
2023-09-09T09:43:16.154Z,4.70
2023-09-09T09:44:16.305Z,4.70
2023-09-09T09:45:16.468Z,6.60
2023-09-09T09:46:16.609Z,4.00
2023-09-09T09:47:16.781Z,6.10
2023-09-09T09:48:16.935Z,5.20
2023-09-09T09:49:17.065Z,4.50
2023-09-09T09:50:17.177Z,4.50
2023-09-09T09:51:17.296Z,3.90
2023-09-09T09:52:17.402Z,5.10
2023-09-09T09:53:17.512Z,4.50
2023-09-09T09:54:17.648Z,3.50
2023-09-09T09:55:17.780Z,4.20
2023-09-09T09:56:17.924Z,3.80
2023-09-09T09:57:18.034Z,3.90
2023-09-09T09:58:18.138Z,3.40
2023-09-09T09:59:18.258Z,4.70
2023-09-09T10:00:18.374Z,3.40
2023-09-09T10:01:18.511Z,5.30
2023-09-09T10:02:18.745Z,4.90
2023-09-09T10:03:18.892Z,4.30
2023-09-09T10:04:19.022Z,5.30
2023-09-09T10:05:19.146Z,2.90
2023-09-09T10:06:19.257Z,4.10
2023-09-09T10:07:19.351Z,4.60
2023-09-09T10:08:19.452Z,4.10
2023-09-09T10:09:19.550Z,4.50
2023-09-09T10:10:19.647Z,5.50
2023-09-09T10:11:19.740Z,4.90
2023-09-09T10:12:21.315Z,4.40
2023-09-09T10:13:20.120Z,3.60
2023-09-09T10:14:20.275Z,4.10
2023-09-09T10:15:20.414Z,4.40
2023-09-09T10:16:20.651Z,6.30
2023-09-09T10:17:20.921Z,3.30
2023-09-09T10:18:21.060Z,4.30
2023-09-09T10:19:21.168Z,5.80
2023-09-09T10:20:21.281Z,3.40
2023-09-09T10:21:35.899Z,3.30
2023-09-09T10:22:21.581Z,4.60
2023-09-09T10:23:21.683Z,3.70
2023-09-09T10:24:21.786Z,4.20
2023-09-09T10:25:21.957Z,3.50
2023-09-09T10:26:22.090Z,4.40
2023-09-09T10:27:22.192Z,4.40
2023-09-09T10:28:22.391Z,4.20
2023-09-09T10:29:24.201Z,3.30
2023-09-09T10:30:22.805Z,5.40
2023-09-09T10:31:22.962Z,3.70
2023-09-09T10:32:23.066Z,3.60
2023-09-09T10:33:23.177Z,4.40
2023-09-09T10:34:23.502Z,4.00
2023-09-09T10:35:23.817Z,3.80
2023-09-09T10:36:23.985Z,3.80
2023-09-09T10:37:24.083Z,5.00
2023-09-09T10:38:24.176Z,3.70
2023-09-09T10:39:24.535Z,3.70
2023-09-09T10:40:24.726Z,5.30
2023-09-09T10:41:24.839Z,4.00
2023-09-09T10:42:24.960Z,3.10
2023-09-09T10:43:25.051Z,3.70
2023-09-09T10:44:25.178Z,5.50
2023-09-09T10:45:25.314Z,3.10
2023-09-09T10:46:25.513Z,2.70
2023-09-09T10:47:25.672Z,3.60
2023-09-09T10:48:25.821Z,5.20
2023-09-09T10:49:25.970Z,3.50
2023-09-09T10:50:26.189Z,3.70
2023-09-09T10:51:30.408Z,4.90
2023-09-09T10:52:26.521Z,5.00
2023-09-09T10:53:26.639Z,4.80
2023-09-09T10:54:26.734Z,5.00
2023-09-09T10:55:26.826Z,3.90
2023-09-09T10:56:26.933Z,3.70
2023-09-09T10:57:27.023Z,4.30
2023-09-09T10:58:27.122Z,3.10
2023-09-09T10:59:27.215Z,3.80
2023-09-09T11:00:27.402Z,5.20
2023-09-09T11:01:27.545Z,3.90
2023-09-09T11:02:27.734Z,3.40
2023-09-09T11:03:27.887Z,4.20
2023-09-09T11:04:29.145Z,3.90
2023-09-09T11:05:28.569Z,4.30
2023-09-09T11:06:28.844Z,3.30
2023-09-09T11:07:28.970Z,4.40
2023-09-09T11:08:29.069Z,3.40
2023-09-09T11:09:29.173Z,3.20
2023-09-09T11:10:29.272Z,4.40
2023-09-09T11:11:29.377Z,3.90
2023-09-09T11:12:29.486Z,3.60
2023-09-09T11:13:29.582Z,3.20
2023-09-09T11:14:29.668Z,3.40
2023-09-09T11:15:29.817Z,3.40
2023-09-09T11:16:30.068Z,2.90
2023-09-09T11:17:30.215Z,3.90
2023-09-09T11:18:30.338Z,4.00
2023-09-09T11:19:30.440Z,3.00
2023-09-09T11:20:30.621Z,3.30
2023-09-09T11:21:30.787Z,3.90
2023-09-09T11:22:30.894Z,4.10
2023-09-09T11:23:31.038Z,4.30
2023-09-09T11:24:31.163Z,3.30
2023-09-09T11:25:31.270Z,3.40
2023-09-09T11:26:31.374Z,4.70
2023-09-09T11:27:31.491Z,4.20
2023-09-09T11:28:31.664Z,3.80
2023-09-09T11:29:37.555Z,4.00
2023-09-09T11:30:34.671Z,3.20
2023-09-09T11:31:32.324Z,4.00
2023-09-09T11:32:32.610Z,4.10
2023-09-09T11:33:32.855Z,3.20
2023-09-09T11:34:32.964Z,3.50
2023-09-09T11:35:33.098Z,3.70
2023-09-09T11:36:34.205Z,3.20
2023-09-09T11:37:33.247Z,2.90
2023-09-09T11:38:33.416Z,4.10
2023-09-09T11:39:33.515Z,5.00
2023-09-09T11:40:33.616Z,4.90
2023-09-09T11:41:33.730Z,3.60
2023-09-09T11:42:33.832Z,4.10
2023-09-09T11:43:33.948Z,3.00
2023-09-09T11:44:34.104Z,2.80
2023-09-09T11:45:34.262Z,3.30
2023-09-09T11:46:34.372Z,2.70
2023-09-09T11:47:34.515Z,3.80
2023-09-09T11:48:34.676Z,4.30
2023-09-09T11:49:34.818Z,4.00
2023-09-09T11:50:34.927Z,4.50
2023-09-09T11:51:35.044Z,2.40
2023-09-09T11:52:35.187Z,4.00
2023-09-09T11:53:35.425Z,3.30
2023-09-09T11:54:35.701Z,4.10
2023-09-09T11:55:35.828Z,4.60
2023-09-09T11:56:35.935Z,3.70
2023-09-09T11:57:36.047Z,3.70
2023-09-09T11:58:36.157Z,4.60
2023-09-09T11:59:36.262Z,3.20
2023-09-09T12:00:36.376Z,3.00
2023-09-09T12:01:36.576Z,2.90
2023-09-09T12:02:36.974Z,2.80
2023-09-09T12:03:37.577Z,3.70
2023-09-09T12:04:37.478Z,3.30
2023-09-09T12:05:37.297Z,3.30
2023-09-09T12:06:37.403Z,3.30
2023-09-09T12:07:37.572Z,4.10
2023-09-09T12:08:37.714Z,3.40
2023-09-09T12:09:37.831Z,3.10
2023-09-09T12:10:37.954Z,3.10
2023-09-09T12:11:38.129Z,3.00
2023-09-09T12:12:38.277Z,3.10
2023-09-09T12:13:38.706Z,2.90
2023-09-09T12:14:38.429Z,3.40
2023-09-09T12:15:38.564Z,3.30
2023-09-09T12:16:38.721Z,3.50
2023-09-09T12:17:38.959Z,3.10
2023-09-09T12:18:39.152Z,4.30
2023-09-09T12:19:39.277Z,3.30
2023-09-09T12:20:39.444Z,3.00
2023-09-09T12:21:39.661Z,3.20
2023-09-09T12:22:39.767Z,3.80
2023-09-09T12:23:40.307Z,4.10
2023-09-09T12:24:40.196Z,3.00
2023-09-09T12:25:40.304Z,3.50
2023-09-09T12:26:40.493Z,3.30
2023-09-09T12:27:40.709Z,3.30
2023-09-09T12:28:40.854Z,3.90
2023-09-09T12:29:41.061Z,3.00
2023-09-09T12:30:41.211Z,3.50
2023-09-09T12:31:41.380Z,3.40
2023-09-09T12:32:41.589Z,3.30
2023-09-09T12:33:41.749Z,3.90
2023-09-09T12:34:41.868Z,3.70
2023-09-09T12:35:41.990Z,3.20
2023-09-09T12:36:42.105Z,3.00
2023-09-09T12:37:42.217Z,3.10
2023-09-09T12:38:42.334Z,3.60
2023-09-09T12:39:42.449Z,3.50
2023-09-09T12:40:42.556Z,3.20
2023-09-09T12:41:42.670Z,3.70
2023-09-09T12:42:42.786Z,3.00
2023-09-09T12:43:43.037Z,2.80
2023-09-09T12:44:43.205Z,3.50
2023-09-09T12:45:43.398Z,2.80
2023-09-09T12:46:43.619Z,3.00
2023-09-09T12:47:43.718Z,3.30
2023-09-09T12:48:43.905Z,2.80
2023-09-09T12:49:44.071Z,2.90
2023-09-09T12:50:45.738Z,2.90
2023-09-09T12:51:44.707Z,2.40
2023-09-09T12:52:44.890Z,3.60
2023-09-09T12:53:45.042Z,3.30
2023-09-09T12:54:45.247Z,3.70
2023-09-09T12:55:45.382Z,3.30
2023-09-09T12:56:45.522Z,3.20
2023-09-09T12:57:45.693Z,3.40
2023-09-09T12:58:45.810Z,3.60
2023-09-09T12:59:45.948Z,4.10
2023-09-09T13:00:46.075Z,3.10
2023-09-09T13:01:46.246Z,3.20
2023-09-09T13:02:46.547Z,2.90
2023-09-09T13:03:46.763Z,3.00
2023-09-09T13:04:46.917Z,3.40
2023-09-09T13:05:47.038Z,3.60
2023-09-09T13:06:47.231Z,3.20
2023-09-09T13:07:47.341Z,2.80
2023-09-09T13:08:47.446Z,3.00
2023-09-09T13:09:47.554Z,3.20
2023-09-09T13:10:47.687Z,2.90
2023-09-09T13:11:47.827Z,3.00
2023-09-09T13:12:47.966Z,2.90
2023-09-09T13:13:48.073Z,3.00
2023-09-09T13:14:48.454Z,2.60
2023-09-09T13:15:48.668Z,3.70
2023-09-09T13:16:48.960Z,2.90
2023-09-09T13:17:49.150Z,3.10
2023-09-09T13:18:49.280Z,2.60
2023-09-09T13:19:49.397Z,3.60
2023-09-09T13:20:49.516Z,3.50